sensor_id;sensor_type;location;lat;lon;timestamp;P1;durP1;ratioP1;P2;durP2;ratioP2
49502;SDS011;35409;48.776;9.204;2023-04-19T00:00:32;13.52;;;10.48;;
49502;SDS011;35409;48.776;9.204;2023-04-19T00:02:59;13.27;;;10.20;;
49502;SDS011;35409;48.776;9.204;2023-04-19T00:05:26;14.10;;;10.65;;
49502;SDS011;35409;48.776;9.204;2023-04-19T00:07:52;13.07;;;9.82;;
49502;SDS011;35409;48.776;9.204;2023-04-19T00:10:17;13.07;;;9.75;;
49502;SDS011;35409;48.776;9.204;2023-04-19T00:12:43;14.73;;;10.88;;
49502;SDS011;35409;48.776;9.204;2023-04-19T00:15:09;14.73;;;10.32;;
49502;SDS011;35409;48.776;9.204;2023-04-19T00:17:34;15.20;;;10.85;;
49502;SDS011;35409;48.776;9.204;2023-04-19T00:20:00;15.43;;;10.82;;
49502;SDS011;35409;48.776;9.204;2023-04-19T00:22:26;13.38;;;10.60;;
49502;SDS011;35409;48.776;9.204;2023-04-19T00:24:51;15.20;;;10.70;;
49502;SDS011;35409;48.776;9.204;2023-04-19T00:27:17;17.15;;;12.07;;
49502;SDS011;35409;48.776;9.204;2023-04-19T00:29:43;14.05;;;11.15;;
49502;SDS011;35409;48.776;9.204;2023-04-19T00:32:09;16.90;;;11.05;;
49502;SDS011;35409;48.776;9.204;2023-04-19T00:34:35;18.25;;;11.85;;
49502;SDS011;35409;48.776;9.204;2023-04-19T00:37:00;16.17;;;11.80;;
49502;SDS011;35409;48.776;9.204;2023-04-19T00:39:28;15.82;;;11.43;;
49502;SDS011;35409;48.776;9.204;2023-04-19T00:41:54;14.50;;;10.70;;
49502;SDS011;35409;48.776;9.204;2023-04-19T00:44:21;17.73;;;11.40;;
49502;SDS011;35409;48.776;9.204;2023-04-19T00:46:47;18.15;;;12.00;;
49502;SDS011;35409;48.776;9.204;2023-04-19T00:49:13;15.32;;;11.45;;
49502;SDS011;35409;48.776;9.204;2023-04-19T00:51:39;16.85;;;11.52;;
49502;SDS011;35409;48.776;9.204;2023-04-19T00:54:05;18.67;;;12.30;;
49502;SDS011;35409;48.776;9.204;2023-04-19T00:56:32;17.42;;;12.55;;
49502;SDS011;35409;48.776;9.204;2023-04-19T00:58:59;16.80;;;12.10;;
49502;SDS011;35409;48.776;9.204;2023-04-19T01:01:24;17.98;;;11.20;;
49502;SDS011;35409;48.776;9.204;2023-04-19T01:03:50;16.85;;;11.88;;
49502;SDS011;35409;48.776;9.204;2023-04-19T01:06:15;16.65;;;12.38;;
49502;SDS011;35409;48.776;9.204;2023-04-19T01:08:41;20.58;;;12.60;;
49502;SDS011;35409;48.776;9.204;2023-04-19T01:11:07;18.67;;;12.35;;
49502;SDS011;35409;48.776;9.204;2023-04-19T01:13:33;17.42;;;11.93;;
49502;SDS011;35409;48.776;9.204;2023-04-19T01:15:59;14.98;;;11.18;;
49502;SDS011;35409;48.776;9.204;2023-04-19T01:18:25;17.95;;;12.23;;
49502;SDS011;35409;48.776;9.204;2023-04-19T01:20:56;20.52;;;13.60;;
49502;SDS011;35409;48.776;9.204;2023-04-19T01:23:25;16.88;;;12.38;;
49502;SDS011;35409;48.776;9.204;2023-04-19T01:25:50;17.08;;;12.55;;
49502;SDS011;35409;48.776;9.204;2023-04-19T01:28:16;19.92;;;13.57;;
49502;SDS011;35409;48.776;9.204;2023-04-19T01:30:42;20.00;;;12.80;;
49502;SDS011;35409;48.776;9.204;2023-04-19T01:33:07;17.23;;;13.20;;
49502;SDS011;35409;48.776;9.204;2023-04-19T01:35:33;20.33;;;14.18;;
49502;SDS011;35409;48.776;9.204;2023-04-19T01:37:59;21.52;;;13.48;;
49502;SDS011;35409;48.776;9.204;2023-04-19T01:40:25;20.77;;;13.07;;
49502;SDS011;35409;48.776;9.204;2023-04-19T01:42:51;19.88;;;12.88;;
49502;SDS011;35409;48.776;9.204;2023-04-19T01:45:17;20.65;;;14.50;;
49502;SDS011;35409;48.776;9.204;2023-04-19T01:47:43;20.27;;;13.43;;
49502;SDS011;35409;48.776;9.204;2023-04-19T01:50:08;19.23;;;13.80;;
49502;SDS011;35409;48.776;9.204;2023-04-19T01:52:34;19.77;;;13.73;;
49502;SDS011;35409;48.776;9.204;2023-04-19T01:55:00;19.38;;;13.50;;
49502;SDS011;35409;48.776;9.204;2023-04-19T01:57:25;20.23;;;14.60;;
49502;SDS011;35409;48.776;9.204;2023-04-19T01:59:54;25.45;;;15.15;;
49502;SDS011;35409;48.776;9.204;2023-04-19T02:02:20;18.80;;;13.98;;
49502;SDS011;35409;48.776;9.204;2023-04-19T02:04:45;22.15;;;14.07;;
49502;SDS011;35409;48.776;9.204;2023-04-19T02:07:11;20.33;;;14.23;;
49502;SDS011;35409;48.776;9.204;2023-04-19T02:09:37;20.92;;;14.88;;
49502;SDS011;35409;48.776;9.204;2023-04-19T02:12:03;24.73;;;14.65;;
49502;SDS011;35409;48.776;9.204;2023-04-19T02:14:29;20.77;;;13.85;;
49502;SDS011;35409;48.776;9.204;2023-04-19T02:16:56;21.65;;;14.80;;
49502;SDS011;35409;48.776;9.204;2023-04-19T02:19:22;23.58;;;15.60;;
49502;SDS011;35409;48.776;9.204;2023-04-19T02:21:47;21.00;;;14.68;;
49502;SDS011;35409;48.776;9.204;2023-04-19T02:24:13;25.40;;;16.20;;
49502;SDS011;35409;48.776;9.204;2023-04-19T02:26:39;22.08;;;15.13;;
49502;SDS011;35409;48.776;9.204;2023-04-19T02:29:05;21.63;;;14.45;;
49502;SDS011;35409;48.776;9.204;2023-04-19T02:31:31;21.60;;;15.27;;
49502;SDS011;35409;48.776;9.204;2023-04-19T02:33:56;24.60;;;15.00;;
49502;SDS011;35409;48.776;9.204;2023-04-19T02:36:22;22.67;;;14.48;;
49502;SDS011;35409;48.776;9.204;2023-04-19T02:38:48;20.45;;;14.77;;
49502;SDS011;35409;48.776;9.204;2023-04-19T02:41:13;24.27;;;15.77;;
49502;SDS011;35409;48.776;9.204;2023-04-19T02:43:39;21.50;;;14.75;;
49502;SDS011;35409;48.776;9.204;2023-04-19T02:46:05;21.23;;;14.75;;
49502;SDS011;35409;48.776;9.204;2023-04-19T02:48:31;20.90;;;13.85;;
49502;SDS011;35409;48.776;9.204;2023-04-19T02:50:56;22.15;;;14.40;;
49502;SDS011;35409;48.776;9.204;2023-04-19T02:53:22;22.02;;;14.95;;
49502;SDS011;35409;48.776;9.204;2023-04-19T02:55:48;22.70;;;14.48;;
49502;SDS011;35409;48.776;9.204;2023-04-19T02:58:13;23.52;;;15.32;;
49502;SDS011;35409;48.776;9.204;2023-04-19T03:00:39;20.95;;;14.77;;
49502;SDS011;35409;48.776;9.204;2023-04-19T03:03:05;21.77;;;15.40;;
49502;SDS011;35409;48.776;9.204;2023-04-19T03:05:31;24.75;;;15.32;;
49502;SDS011;35409;48.776;9.204;2023-04-19T03:07:57;24.67;;;15.77;;
49502;SDS011;35409;48.776;9.204;2023-04-19T03:10:22;26.25;;;16.30;;
49502;SDS011;35409;48.776;9.204;2023-04-19T03:12:48;21.70;;;15.27;;
49502;SDS011;35409;48.776;9.204;2023-04-19T03:15:13;23.33;;;17.05;;
49502;SDS011;35409;48.776;9.204;2023-04-19T03:17:40;24.60;;;15.98;;
49502;SDS011;35409;48.776;9.204;2023-04-19T03:20:05;25.08;;;15.65;;
49502;SDS011;35409;48.776;9.204;2023-04-19T03:25:02;23.77;;;15.30;;
49502;SDS011;35409;48.776;9.204;2023-04-19T03:27:32;24.40;;;17.00;;
49502;SDS011;35409;48.776;9.204;2023-04-19T03:30:00;22.95;;;16.48;;
49502;SDS011;35409;48.776;9.204;2023-04-19T03:32:25;24.75;;;16.00;;
49502;SDS011;35409;48.776;9.204;2023-04-19T03:34:51;23.10;;;16.40;;
49502;SDS011;35409;48.776;9.204;2023-04-19T03:37:16;24.05;;;16.30;;
49502;SDS011;35409;48.776;9.204;2023-04-19T03:39:42;27.52;;;17.60;;
49502;SDS011;35409;48.776;9.204;2023-04-19T03:42:07;25.35;;;17.52;;
49502;SDS011;35409;48.776;9.204;2023-04-19T03:44:33;22.83;;;16.25;;
49502;SDS011;35409;48.776;9.204;2023-04-19T03:46:58;24.73;;;16.42;;
49502;SDS011;35409;48.776;9.204;2023-04-19T03:49:24;26.60;;;17.83;;
49502;SDS011;35409;48.776;9.204;2023-04-19T03:51:50;21.25;;;16.20;;
49502;SDS011;35409;48.776;9.204;2023-04-19T03:54:15;21.05;;;15.77;;
49502;SDS011;35409;48.776;9.204;2023-04-19T03:56:41;28.73;;;18.17;;
49502;SDS011;35409;48.776;9.204;2023-04-19T03:59:08;25.00;;;17.05;;
49502;SDS011;35409;48.776;9.204;2023-04-19T04:01:33;26.83;;;17.30;;
49502;SDS011;35409;48.776;9.204;2023-04-19T04:03:59;26.20;;;17.25;;
49502;SDS011;35409;48.776;9.204;2023-04-19T04:06:25;26.60;;;18.02;;
49502;SDS011;35409;48.776;9.204;2023-04-19T04:08:50;23.58;;;17.27;;
49502;SDS011;35409;48.776;9.204;2023-04-19T04:11:16;28.10;;;17.33;;
49502;SDS011;35409;48.776;9.204;2023-04-19T04:13:42;26.17;;;17.85;;
49502;SDS011;35409;48.776;9.204;2023-04-19T04:16:07;28.45;;;18.05;;
49502;SDS011;35409;48.776;9.204;2023-04-19T04:18:33;27.35;;;18.63;;
49502;SDS011;35409;48.776;9.204;2023-04-19T04:20:59;30.33;;;19.25;;
49502;SDS011;35409;48.776;9.204;2023-04-19T04:23:24;29.48;;;19.75;;
49502;SDS011;35409;48.776;9.204;2023-04-19T04:25:59;28.10;;;19.08;;
49502;SDS011;35409;48.776;9.204;2023-04-19T04:28:28;28.90;;;18.85;;
49502;SDS011;35409;48.776;9.204;2023-04-19T04:30:56;29.77;;;18.83;;
49502;SDS011;35409;48.776;9.204;2023-04-19T04:33:23;27.85;;;18.38;;
49502;SDS011;35409;48.776;9.204;2023-04-19T04:35:50;29.08;;;19.55;;
49502;SDS011;35409;48.776;9.204;2023-04-19T04:38:17;31.48;;;18.60;;
49502;SDS011;35409;48.776;9.204;2023-04-19T04:40:51;26.10;;;18.70;;
49502;SDS011;35409;48.776;9.204;2023-04-19T04:43:18;28.17;;;17.63;;
49502;SDS011;35409;48.776;9.204;2023-04-19T04:45:48;27.50;;;19.25;;
49502;SDS011;35409;48.776;9.204;2023-04-19T04:48:14;29.73;;;19.65;;
49502;SDS011;35409;48.776;9.204;2023-04-19T04:50:40;33.20;;;19.60;;
49502;SDS011;35409;48.776;9.204;2023-04-19T04:53:06;30.90;;;19.67;;
49502;SDS011;35409;48.776;9.204;2023-04-19T04:55:32;27.65;;;19.58;;
49502;SDS011;35409;48.776;9.204;2023-04-19T04:57:58;26.45;;;19.10;;
49502;SDS011;35409;48.776;9.204;2023-04-19T05:00:24;27.30;;;19.30;;
49502;SDS011;35409;48.776;9.204;2023-04-19T05:02:49;31.85;;;20.02;;
49502;SDS011;35409;48.776;9.204;2023-04-19T05:05:15;27.50;;;19.67;;
49502;SDS011;35409;48.776;9.204;2023-04-19T05:07:41;27.15;;;18.98;;
49502;SDS011;35409;48.776;9.204;2023-04-19T05:10:06;28.00;;;18.33;;
49502;SDS011;35409;48.776;9.204;2023-04-19T05:12:32;24.35;;;17.95;;
49502;SDS011;35409;48.776;9.204;2023-04-19T05:14:58;28.45;;;18.25;;
49502;SDS011;35409;48.776;9.204;2023-04-19T05:17:24;26.75;;;18.48;;
49502;SDS011;35409;48.776;9.204;2023-04-19T05:19:49;26.00;;;17.45;;
49502;SDS011;35409;48.776;9.204;2023-04-19T05:22:15;29.75;;;18.63;;
49502;SDS011;35409;48.776;9.204;2023-04-19T05:24:41;25.67;;;18.00;;
49502;SDS011;35409;48.776;9.204;2023-04-19T05:27:06;25.90;;;18.50;;
49502;SDS011;35409;48.776;9.204;2023-04-19T05:29:33;24.98;;;17.42;;
49502;SDS011;35409;48.776;9.204;2023-04-19T05:31:59;24.73;;;18.17;;
49502;SDS011;35409;48.776;9.204;2023-04-19T05:34:24;25.88;;;17.90;;
49502;SDS011;35409;48.776;9.204;2023-04-19T05:36:50;27.17;;;18.80;;
49502;SDS011;35409;48.776;9.204;2023-04-19T05:39:15;28.10;;;19.00;;
49502;SDS011;35409;48.776;9.204;2023-04-19T05:41:41;25.80;;;17.45;;
49502;SDS011;35409;48.776;9.204;2023-04-19T05:44:07;26.58;;;17.92;;
49502;SDS011;35409;48.776;9.204;2023-04-19T05:46:33;30.75;;;18.42;;
49502;SDS011;35409;48.776;9.204;2023-04-19T05:48:58;25.40;;;17.48;;
49502;SDS011;35409;48.776;9.204;2023-04-19T05:51:24;28.25;;;18.20;;
49502;SDS011;35409;48.776;9.204;2023-04-19T05:53:50;24.30;;;18.10;;
49502;SDS011;35409;48.776;9.204;2023-04-19T05:56:16;29.70;;;19.98;;
49502;SDS011;35409;48.776;9.204;2023-04-19T05:58:41;28.58;;;19.17;;
49502;SDS011;35409;48.776;9.204;2023-04-19T06:01:07;31.02;;;17.75;;
49502;SDS011;35409;48.776;9.204;2023-04-19T06:03:32;25.55;;;17.27;;
49502;SDS011;35409;48.776;9.204;2023-04-19T06:05:58;25.35;;;17.48;;
49502;SDS011;35409;48.776;9.204;2023-04-19T06:08:24;23.95;;;16.17;;
49502;SDS011;35409;48.776;9.204;2023-04-19T06:10:49;25.65;;;16.73;;
49502;SDS011;35409;48.776;9.204;2023-04-19T06:13:15;21.08;;;15.52;;
49502;SDS011;35409;48.776;9.204;2023-04-19T06:15:41;25.77;;;16.67;;
49502;SDS011;35409;48.776;9.204;2023-04-19T06:18:07;25.10;;;17.08;;
49502;SDS011;35409;48.776;9.204;2023-04-19T06:20:36;24.50;;;16.80;;
49502;SDS011;35409;48.776;9.204;2023-04-19T06:23:01;25.30;;;17.02;;
49502;SDS011;35409;48.776;9.204;2023-04-19T06:25:27;23.80;;;17.38;;
49502;SDS011;35409;48.776;9.204;2023-04-19T06:27:53;26.23;;;15.95;;
49502;SDS011;35409;48.776;9.204;2023-04-19T06:30:18;21.70;;;15.93;;
49502;SDS011;35409;48.776;9.204;2023-04-19T06:32:44;27.75;;;15.93;;
49502;SDS011;35409;48.776;9.204;2023-04-19T06:35:09;26.75;;;15.63;;
49502;SDS011;35409;48.776;9.204;2023-04-19T06:37:35;20.88;;;14.43;;
49502;SDS011;35409;48.776;9.204;2023-04-19T06:40:01;19.70;;;14.52;;
49502;SDS011;35409;48.776;9.204;2023-04-19T06:42:29;18.48;;;14.70;;
49502;SDS011;35409;48.776;9.204;2023-04-19T06:44:54;20.85;;;15.00;;
49502;SDS011;35409;48.776;9.204;2023-04-19T06:47:21;22.52;;;15.77;;
49502;SDS011;35409;48.776;9.204;2023-04-19T06:49:47;19.33;;;15.38;;
49502;SDS011;35409;48.776;9.204;2023-04-19T06:52:12;22.98;;;15.23;;
49502;SDS011;35409;48.776;9.204;2023-04-19T06:54:38;19.75;;;14.80;;
49502;SDS011;35409;48.776;9.204;2023-04-19T06:57:03;23.85;;;16.10;;
49502;SDS011;35409;48.776;9.204;2023-04-19T06:59:29;20.42;;;14.57;;
49502;SDS011;35409;48.776;9.204;2023-04-19T07:01:56;21.83;;;14.80;;
49502;SDS011;35409;48.776;9.204;2023-04-19T07:04:22;19.38;;;14.23;;
49502;SDS011;35409;48.776;9.204;2023-04-19T07:06:48;18.63;;;14.30;;
49502;SDS011;35409;48.776;9.204;2023-04-19T07:09:14;17.92;;;13.65;;
49502;SDS011;35409;48.776;9.204;2023-04-19T07:11:39;20.02;;;14.80;;
49502;SDS011;35409;48.776;9.204;2023-04-19T07:14:05;21.40;;;14.85;;
49502;SDS011;35409;48.776;9.204;2023-04-19T07:16:31;20.38;;;14.65;;
49502;SDS011;35409;48.776;9.204;2023-04-19T07:18:57;20.83;;;14.85;;
49502;SDS011;35409;48.776;9.204;2023-04-19T07:21:22;21.60;;;14.60;;
49502;SDS011;35409;48.776;9.204;2023-04-19T07:23:56;20.08;;;14.18;;
49502;SDS011;35409;48.776;9.204;2023-04-19T07:26:22;23.02;;;14.77;;
49502;SDS011;35409;48.776;9.204;2023-04-19T07:28:47;21.30;;;14.70;;
49502;SDS011;35409;48.776;9.204;2023-04-19T07:31:15;19.75;;;14.10;;
49502;SDS011;35409;48.776;9.204;2023-04-19T07:33:41;21.50;;;15.27;;
49502;SDS011;35409;48.776;9.204;2023-04-19T07:36:08;16.58;;;12.82;;
49502;SDS011;35409;48.776;9.204;2023-04-19T07:38:33;20.33;;;13.20;;
49502;SDS011;35409;48.776;9.204;2023-04-19T07:40:59;21.20;;;14.45;;
49502;SDS011;35409;48.776;9.204;2023-04-19T07:43:24;19.10;;;13.82;;
49502;SDS011;35409;48.776;9.204;2023-04-19T07:45:51;21.48;;;14.60;;
49502;SDS011;35409;48.776;9.204;2023-04-19T07:48:17;21.95;;;15.38;;
49502;SDS011;35409;48.776;9.204;2023-04-19T07:50:42;20.70;;;13.70;;
49502;SDS011;35409;48.776;9.204;2023-04-19T07:53:08;20.45;;;13.77;;
49502;SDS011;35409;48.776;9.204;2023-04-19T07:55:34;18.60;;;12.52;;
49502;SDS011;35409;48.776;9.204;2023-04-19T07:58:00;18.08;;;12.60;;
49502;SDS011;35409;48.776;9.204;2023-04-19T08:00:25;17.30;;;12.05;;
49502;SDS011;35409;48.776;9.204;2023-04-19T08:02:53;17.17;;;12.93;;
49502;SDS011;35409;48.776;9.204;2023-04-19T08:05:20;16.30;;;12.55;;
49502;SDS011;35409;48.776;9.204;2023-04-19T08:07:46;15.80;;;11.60;;
49502;SDS011;35409;48.776;9.204;2023-04-19T08:10:12;16.83;;;12.50;;
49502;SDS011;35409;48.776;9.204;2023-04-19T08:12:38;17.10;;;11.93;;
49502;SDS011;35409;48.776;9.204;2023-04-19T08:15:05;19.90;;;13.30;;
49502;SDS011;35409;48.776;9.204;2023-04-19T08:17:32;18.10;;;12.10;;
49502;SDS011;35409;48.776;9.204;2023-04-19T08:19:59;16.10;;;12.35;;
49502;SDS011;35409;48.776;9.204;2023-04-19T08:22:24;15.13;;;12.55;;
49502;SDS011;35409;48.776;9.204;2023-04-19T08:24:51;16.05;;;12.40;;
49502;SDS011;35409;48.776;9.204;2023-04-19T08:27:17;12.80;;;10.43;;
49502;SDS011;35409;48.776;9.204;2023-04-19T08:29:43;14.90;;;10.52;;
49502;SDS011;35409;48.776;9.204;2023-04-19T08:32:10;13.55;;;8.95;;
49502;SDS011;35409;48.776;9.204;2023-04-19T08:34:37;14.80;;;9.20;;
49502;SDS011;35409;48.776;9.204;2023-04-19T08:37:03;14.88;;;9.07;;
49502;SDS011;35409;48.776;9.204;2023-04-19T08:39:31;13.55;;;9.05;;
49502;SDS011;35409;48.776;9.204;2023-04-19T08:41:58;12.13;;;9.05;;
49502;SDS011;35409;48.776;9.204;2023-04-19T08:44:32;11.60;;;9.20;;
49502;SDS011;35409;48.776;9.204;2023-04-19T08:46:59;12.43;;;8.75;;
49502;SDS011;35409;48.776;9.204;2023-04-19T08:49:26;13.27;;;9.88;;
49502;SDS011;35409;48.776;9.204;2023-04-19T08:51:52;12.93;;;9.85;;
49502;SDS011;35409;48.776;9.204;2023-04-19T08:54:19;11.20;;;9.27;;
49502;SDS011;35409;48.776;9.204;2023-04-19T08:56:46;10.25;;;8.10;;
49502;SDS011;35409;48.776;9.204;2023-04-19T08:59:11;11.70;;;9.00;;
49502;SDS011;35409;48.776;9.204;2023-04-19T09:01:38;12.38;;;8.93;;
49502;SDS011;35409;48.776;9.204;2023-04-19T09:04:05;12.00;;;8.88;;
49502;SDS011;35409;48.776;9.204;2023-04-19T09:06:37;15.43;;;8.93;;
49502;SDS011;35409;48.776;9.204;2023-04-19T09:09:13;14.63;;;9.52;;
49502;SDS011;35409;48.776;9.204;2023-04-19T09:11:49;13.20;;;8.48;;
49502;SDS011;35409;48.776;9.204;2023-04-19T09:14:16;13.88;;;8.90;;
49502;SDS011;35409;48.776;9.204;2023-04-19T09:16:43;12.15;;;8.82;;
49502;SDS011;35409;48.776;9.204;2023-04-19T09:19:09;12.52;;;9.00;;
49502;SDS011;35409;48.776;9.204;2023-04-19T09:21:38;14.90;;;9.02;;
49502;SDS011;35409;48.776;9.204;2023-04-19T09:24:04;15.77;;;10.55;;
49502;SDS011;35409;48.776;9.204;2023-04-19T09:26:30;12.32;;;9.82;;
49502;SDS011;35409;48.776;9.204;2023-04-19T09:28:57;14.70;;;9.82;;
49502;SDS011;35409;48.776;9.204;2023-04-19T09:31:25;12.68;;;9.75;;
49502;SDS011;35409;48.776;9.204;2023-04-19T09:33:52;16.35;;;10.75;;
49502;SDS011;35409;48.776;9.204;2023-04-19T09:36:28;13.93;;;10.30;;
49502;SDS011;35409;48.776;9.204;2023-04-19T09:38:55;17.35;;;10.85;;
49502;SDS011;35409;48.776;9.204;2023-04-19T09:41:22;29.45;;;10.95;;
49502;SDS011;35409;48.776;9.204;2023-04-19T09:43:48;13.82;;;10.38;;
49502;SDS011;35409;48.776;9.204;2023-04-19T09:46:47;17.27;;;10.75;;
49502;SDS011;35409;48.776;9.204;2023-04-19T09:51:54;11.70;;;9.43;;
49502;SDS011;35409;48.776;9.204;2023-04-19T09:54:24;15.05;;;9.93;;
49502;SDS011;35409;48.776;9.204;2023-04-19T09:56:53;12.25;;;9.40;;
49502;SDS011;35409;48.776;9.204;2023-04-19T09:59:19;14.50;;;10.73;;
49502;SDS011;35409;48.776;9.204;2023-04-19T10:01:46;14.13;;;11.45;;
49502;SDS011;35409;48.776;9.204;2023-04-19T10:04:20;13.32;;;10.65;;
49502;SDS011;35409;48.776;9.204;2023-04-19T10:06:50;12.52;;;10.05;;
49502;SDS011;35409;48.776;9.204;2023-04-19T10:09:17;12.82;;;9.48;;
49502;SDS011;35409;48.776;9.204;2023-04-19T10:11:49;13.07;;;9.93;;
49502;SDS011;35409;48.776;9.204;2023-04-19T10:14:21;14.55;;;9.80;;
49502;SDS011;35409;48.776;9.204;2023-04-19T10:16:51;14.70;;;10.50;;
49502;SDS011;35409;48.776;9.204;2023-04-19T10:19:18;12.07;;;9.73;;
49502;SDS011;35409;48.776;9.204;2023-04-19T10:21:46;12.20;;;8.15;;
49502;SDS011;35409;48.776;9.204;2023-04-19T10:24:13;11.55;;;8.80;;
49502;SDS011;35409;48.776;9.204;2023-04-19T10:32:22;12.88;;;8.27;;
49502;SDS011;35409;48.776;9.204;2023-04-19T10:34:52;11.68;;;7.90;;
49502;SDS011;35409;48.776;9.204;2023-04-19T10:37:21;10.73;;;8.13;;
49502;SDS011;35409;48.776;9.204;2023-04-19T10:39:49;11.40;;;8.23;;
49502;SDS011;35409;48.776;9.204;2023-04-19T10:42:15;12.88;;;8.90;;
49502;SDS011;35409;48.776;9.204;2023-04-19T10:44:41;13.90;;;10.25;;
49502;SDS011;35409;48.776;9.204;2023-04-19T10:47:06;13.77;;;8.82;;
49502;SDS011;35409;48.776;9.204;2023-04-19T10:49:43;13.02;;;10.65;;
49502;SDS011;35409;48.776;9.204;2023-04-19T10:52:25;13.43;;;10.63;;
49502;SDS011;35409;48.776;9.204;2023-04-19T10:54:56;13.55;;;9.93;;
49502;SDS011;35409;48.776;9.204;2023-04-19T10:57:21;12.88;;;9.55;;
49502;SDS011;35409;48.776;9.204;2023-04-19T11:00:16;11.82;;;9.27;;
49502;SDS011;35409;48.776;9.204;2023-04-19T11:02:46;17.25;;;10.38;;
49502;SDS011;35409;48.776;9.204;2023-04-19T11:05:12;15.05;;;11.18;;
49502;SDS011;35409;48.776;9.204;2023-04-19T11:07:38;13.93;;;9.75;;
49502;SDS011;35409;48.776;9.204;2023-04-19T11:10:05;12.05;;;9.70;;
49502;SDS011;35409;48.776;9.204;2023-04-19T11:12:32;15.18;;;9.68;;
49502;SDS011;35409;48.776;9.204;2023-04-19T11:14:58;12.23;;;10.13;;
49502;SDS011;35409;48.776;9.204;2023-04-19T11:17:28;16.00;;;10.40;;
49502;SDS011;35409;48.776;9.204;2023-04-19T11:19:59;15.20;;;9.55;;
49502;SDS011;35409;48.776;9.204;2023-04-19T11:25:04;18.70;;;10.75;;
49502;SDS011;35409;48.776;9.204;2023-04-19T11:27:37;13.93;;;9.80;;
49502;SDS011;35409;48.776;9.204;2023-04-19T11:30:07;16.30;;;11.65;;
49502;SDS011;35409;48.776;9.204;2023-04-19T11:32:43;16.20;;;10.73;;
49502;SDS011;35409;48.776;9.204;2023-04-19T11:35:27;14.55;;;10.50;;
49502;SDS011;35409;48.776;9.204;2023-04-19T11:37:55;15.23;;;10.48;;
49502;SDS011;35409;48.776;9.204;2023-04-19T11:40:23;16.73;;;11.35;;
49502;SDS011;35409;48.776;9.204;2023-04-19T11:42:53;15.27;;;10.82;;
49502;SDS011;35409;48.776;9.204;2023-04-19T11:45:27;18.30;;;12.07;;
49502;SDS011;35409;48.776;9.204;2023-04-19T11:47:57;17.33;;;11.93;;
49502;SDS011;35409;48.776;9.204;2023-04-19T11:52:58;18.90;;;11.85;;
49502;SDS011;35409;48.776;9.204;2023-04-19T11:55:24;16.75;;;12.27;;
49502;SDS011;35409;48.776;9.204;2023-04-19T11:57:50;19.30;;;13.00;;
49502;SDS011;35409;48.776;9.204;2023-04-19T12:00:16;17.83;;;13.68;;
49502;SDS011;35409;48.776;9.204;2023-04-19T12:02:51;20.75;;;14.63;;
49502;SDS011;35409;48.776;9.204;2023-04-19T12:05:18;22.88;;;15.48;;
49502;SDS011;35409;48.776;9.204;2023-04-19T12:08:02;21.83;;;15.98;;
49502;SDS011;35409;48.776;9.204;2023-04-19T12:10:30;24.17;;;17.38;;
49502;SDS011;35409;48.776;9.204;2023-04-19T12:12:56;26.70;;;17.90;;
49502;SDS011;35409;48.776;9.204;2023-04-19T12:15:22;27.83;;;18.58;;
49502;SDS011;35409;48.776;9.204;2023-04-19T12:17:58;26.75;;;19.27;;
49502;SDS011;35409;48.776;9.204;2023-04-19T12:20:29;30.42;;;19.20;;
49502;SDS011;35409;48.776;9.204;2023-04-19T12:23:02;26.65;;;18.85;;
49502;SDS011;35409;48.776;9.204;2023-04-19T12:25:29;27.33;;;19.00;;
49502;SDS011;35409;48.776;9.204;2023-04-19T12:27:56;29.52;;;20.52;;
49502;SDS011;35409;48.776;9.204;2023-04-19T12:30:22;26.65;;;18.95;;
49502;SDS011;35409;48.776;9.204;2023-04-19T12:32:48;29.23;;;21.20;;
49502;SDS011;35409;48.776;9.204;2023-04-19T12:35:15;31.45;;;20.75;;
49502;SDS011;35409;48.776;9.204;2023-04-19T12:37:41;29.08;;;20.85;;
49502;SDS011;35409;48.776;9.204;2023-04-19T12:40:07;31.83;;;21.40;;
49502;SDS011;35409;48.776;9.204;2023-04-19T12:42:33;31.10;;;21.65;;
49502;SDS011;35409;48.776;9.204;2023-04-19T12:44:59;33.50;;;21.25;;
49502;SDS011;35409;48.776;9.204;2023-04-19T12:47:25;34.03;;;21.45;;
49502;SDS011;35409;48.776;9.204;2023-04-19T12:49:50;32.28;;;22.85;;
49502;SDS011;35409;48.776;9.204;2023-04-19T12:52:16;36.58;;;23.80;;
49502;SDS011;35409;48.776;9.204;2023-04-19T12:54:43;32.13;;;21.27;;
49502;SDS011;35409;48.776;9.204;2023-04-19T12:57:09;31.00;;;21.20;;
49502;SDS011;35409;48.776;9.204;2023-04-19T12:59:35;37.22;;;21.45;;
49502;SDS011;35409;48.776;9.204;2023-04-19T13:02:00;28.85;;;19.52;;
49502;SDS011;35409;48.776;9.204;2023-04-19T13:04:26;29.23;;;18.77;;
49502;SDS011;35409;48.776;9.204;2023-04-19T13:06:52;27.02;;;17.30;;
49502;SDS011;35409;48.776;9.204;2023-04-19T13:09:17;28.20;;;18.40;;
49502;SDS011;35409;48.776;9.204;2023-04-19T13:11:43;27.83;;;17.75;;
49502;SDS011;35409;48.776;9.204;2023-04-19T13:14:08;24.30;;;16.42;;
49502;SDS011;35409;48.776;9.204;2023-04-19T13:16:34;29.33;;;17.88;;
49502;SDS011;35409;48.776;9.204;2023-04-19T13:19:00;25.38;;;16.10;;
49502;SDS011;35409;48.776;9.204;2023-04-19T13:21:25;25.70;;;16.83;;
49502;SDS011;35409;48.776;9.204;2023-04-19T13:23:51;29.90;;;17.90;;
49502;SDS011;35409;48.776;9.204;2023-04-19T13:26:17;25.70;;;16.50;;
49502;SDS011;35409;48.776;9.204;2023-04-19T13:28:43;20.90;;;14.07;;
49502;SDS011;35409;48.776;9.204;2023-04-19T13:31:09;21.65;;;14.75;;
49502;SDS011;35409;48.776;9.204;2023-04-19T13:33:34;19.80;;;13.75;;
49502;SDS011;35409;48.776;9.204;2023-04-19T13:36:00;22.38;;;14.73;;
49502;SDS011;35409;48.776;9.204;2023-04-19T13:38:26;21.85;;;14.23;;
49502;SDS011;35409;48.776;9.204;2023-04-19T13:40:51;17.83;;;12.82;;
49502;SDS011;35409;48.776;9.204;2023-04-19T13:43:17;20.38;;;14.10;;
49502;SDS011;35409;48.776;9.204;2023-04-19T13:45:43;25.15;;;15.93;;
49502;SDS011;35409;48.776;9.204;2023-04-19T13:48:08;20.98;;;14.38;;
49502;SDS011;35409;48.776;9.204;2023-04-19T13:50:34;21.42;;;13.80;;
49502;SDS011;35409;48.776;9.204;2023-04-19T13:53:00;18.33;;;12.80;;
49502;SDS011;35409;48.776;9.204;2023-04-19T13:55:25;21.55;;;13.52;;
49502;SDS011;35409;48.776;9.204;2023-04-19T13:57:51;19.15;;;13.15;;
49502;SDS011;35409;48.776;9.204;2023-04-19T14:00:17;16.38;;;12.35;;
49502;SDS011;35409;48.776;9.204;2023-04-19T14:02:43;24.13;;;12.63;;
49502;SDS011;35409;48.776;9.204;2023-04-19T14:05:09;15.32;;;10.98;;
49502;SDS011;35409;48.776;9.204;2023-04-19T14:07:37;15.43;;;10.95;;
49502;SDS011;35409;48.776;9.204;2023-04-19T14:10:03;15.73;;;10.88;;
49502;SDS011;35409;48.776;9.204;2023-04-19T14:12:31;18.67;;;11.55;;
49502;SDS011;35409;48.776;9.204;2023-04-19T14:14:56;19.42;;;10.80;;
49502;SDS011;35409;48.776;9.204;2023-04-19T14:17:22;14.27;;;10.30;;
49502;SDS011;35409;48.776;9.204;2023-04-19T14:19:48;14.20;;;10.35;;
49502;SDS011;35409;48.776;9.204;2023-04-19T14:22:16;13.63;;;10.23;;
49502;SDS011;35409;48.776;9.204;2023-04-19T14:24:42;13.65;;;10.20;;
49502;SDS011;35409;48.776;9.204;2023-04-19T14:27:07;15.45;;;9.82;;
49502;SDS011;35409;48.776;9.204;2023-04-19T14:29:33;14.80;;;10.38;;
49502;SDS011;35409;48.776;9.204;2023-04-19T14:31:59;14.88;;;9.52;;
49502;SDS011;35409;48.776;9.204;2023-04-19T14:34:25;12.98;;;9.63;;
49502;SDS011;35409;48.776;9.204;2023-04-19T14:36:50;13.23;;;9.68;;